createdAt,value
2019-04-23T00:00:26.712Z,4.40
2019-04-23T00:05:21.528Z,4.80
2019-04-23T00:10:26.073Z,4.30
2019-04-23T00:15:35.039Z,4.63
2019-04-23T00:20:36.171Z,4.50
2019-04-23T00:25:53.782Z,4.90
2019-04-23T00:35:55.287Z,4.63
2019-04-23T00:41:02.769Z,4.37
2019-04-23T00:46:18.691Z,4.47
2019-04-23T00:51:18.560Z,4.73
2019-04-23T01:01:41.330Z,4.60
2019-04-23T01:06:29.106Z,4.77
2019-04-23T01:11:39.344Z,4.50
2019-04-23T01:16:59.741Z,4.80
2019-04-23T01:21:41.167Z,4.97
2019-04-23T01:27:43.168Z,4.77
2019-04-23T01:47:50.097Z,4.90
2019-04-23T01:53:00.815Z,4.83
2019-04-23T01:58:23.918Z,5.20
2019-04-23T02:03:11.022Z,5.33
2019-04-23T02:18:23.479Z,4.97
2019-04-23T02:23:31.202Z,5.30
2019-04-23T02:28:38.547Z,5.60
2019-04-23T02:33:53.446Z,5.30
2019-04-23T02:44:04.910Z,4.83
2019-04-23T02:49:12.534Z,5.33
2019-04-23T02:54:28.792Z,4.93
2019-04-23T02:59:21.705Z,4.93
2019-04-23T03:04:32.863Z,4.90
2019-04-23T03:09:36.673Z,5.20
2019-04-23T03:14:35.219Z,5.33
2019-04-23T03:19:38.206Z,4.67
2019-04-23T03:25:12.969Z,5.30
2019-04-23T03:30:49.226Z,4.60
2019-04-23T03:35:08.936Z,5.50
2019-04-23T04:00:58.050Z,5.53
2019-04-23T04:05:57.942Z,5.37
2019-04-23T04:11:11.494Z,5.60
2019-04-23T04:16:07.423Z,5.30
2019-04-23T04:21:09.564Z,5.70
2019-04-23T04:26:13.270Z,5.53
2019-04-23T04:31:16.314Z,5.40
2019-04-23T04:41:31.208Z,5.57
2019-04-23T04:51:55.492Z,5.37
2019-04-23T05:02:01.553Z,5.80
2019-04-23T05:12:16.179Z,6.07
2019-04-23T05:17:16.814Z,6.63
2019-04-23T05:22:16.158Z,6.37
2019-04-23T05:27:17.562Z,6.40
2019-04-23T05:32:19.391Z,7.03
2019-04-23T05:37:39.438Z,8.33
2019-04-23T05:42:43.082Z,9.03
2019-04-23T05:47:59.037Z,10.03
2019-04-23T05:52:53.105Z,10.43
2019-04-23T05:57:55.569Z,7.60
2019-04-23T06:08:05.584Z,10.43
2019-04-23T06:13:04.765Z,10.37
2019-04-23T06:18:18.263Z,8.63
2019-04-23T06:23:24.988Z,7.40
2019-04-23T06:28:24.135Z,6.97
2019-04-23T06:33:27.609Z,6.60
2019-04-23T06:38:54.528Z,6.67
2019-04-23T06:44:01.962Z,7.00
2019-04-23T06:48:57.430Z,6.83
2019-04-23T06:53:56.724Z,6.50
2019-04-23T06:59:06.147Z,5.83
2019-04-23T07:04:10.707Z,6.27
2019-04-23T07:09:23.793Z,6.23
2019-04-23T07:14:12.011Z,5.87
2019-04-23T07:19:42.491Z,6.50
2019-04-23T07:24:31.284Z,6.40
2019-04-23T07:29:40.586Z,6.37
2019-04-23T07:34:49.816Z,6.27
2019-04-23T07:40:12.973Z,6.20
2019-04-23T07:45:12.512Z,6.10
2019-04-23T07:50:23.370Z,6.33
2019-04-23T07:55:25.509Z,6.23
2019-04-23T08:00:36.125Z,6.50
2019-04-23T08:05:37.687Z,6.10
2019-04-23T08:10:58.801Z,6.37
2019-04-23T08:15:48.090Z,5.73
2019-04-23T08:20:54.173Z,6.10
2019-04-23T08:31:21.961Z,5.53
2019-04-23T08:36:29.443Z,6.30
2019-04-23T08:41:49.977Z,6.23
2019-04-23T08:46:56.892Z,6.43
2019-04-23T08:52:04.419Z,6.20
2019-04-23T08:57:02.616Z,6.23
2019-04-23T09:07:16.961Z,5.90
2019-04-23T09:12:18.847Z,5.80
2019-04-23T09:22:30.982Z,5.77
2019-04-23T09:27:38.523Z,5.77
2019-04-23T09:32:43.380Z,5.80
2019-04-23T09:38:11.683Z,5.33
2019-04-23T09:43:29.895Z,5.20
2019-04-23T09:48:35.000Z,5.10
2019-04-23T09:53:44.323Z,6.33
2019-04-23T09:58:43.308Z,5.87
2019-04-23T10:03:38.460Z,5.53
2019-04-23T10:08:35.551Z,5.50
2019-04-23T10:13:34.531Z,6.13
2019-04-23T10:18:39.352Z,5.00
2019-04-23T10:23:43.476Z,5.17
2019-04-23T10:28:51.902Z,5.37
2019-04-23T10:33:56.068Z,5.03
2019-04-23T10:39:07.350Z,4.90
2019-04-23T10:44:08.949Z,5.40
2019-04-23T10:54:52.328Z,5.33
2019-04-23T10:59:58.657Z,5.00
2019-04-23T11:10:11.568Z,5.23
2019-04-23T11:15:22.117Z,5.47
2019-04-23T11:20:25.841Z,5.17
2019-04-23T11:30:33.621Z,5.47
2019-04-23T11:36:09.418Z,5.90
2019-04-23T11:40:38.270Z,6.07
2019-04-23T11:51:41.817Z,6.60
2019-04-23T11:56:02.630Z,5.77
2019-04-23T12:01:36.272Z,5.63
2019-04-23T12:06:46.045Z,6.07
2019-04-23T12:11:54.551Z,5.67
2019-04-23T12:17:17.288Z,5.67
2019-04-23T12:22:15.230Z,5.10
2019-04-23T12:27:16.796Z,6.13
2019-04-23T12:53:01.192Z,5.20
2019-04-23T12:58:21.965Z,5.17
2019-04-23T13:03:16.955Z,6.40
2019-04-23T13:08:39.244Z,5.20
2019-04-23T13:13:28.040Z,5.50
2019-04-23T13:23:39.177Z,5.53
2019-04-23T13:28:45.623Z,5.43
2019-04-23T13:43:56.717Z,5.40
2019-04-23T13:49:08.018Z,5.30
2019-04-23T13:54:17.296Z,5.00
2019-04-23T13:59:39.732Z,5.70
2019-04-23T14:20:01.003Z,5.07
2019-04-23T14:30:13.164Z,5.40
2019-04-23T14:40:29.653Z,4.90
2019-04-23T14:45:46.680Z,5.13
2019-04-23T15:06:12.700Z,4.67
2019-04-23T15:11:13.451Z,5.23
2019-04-23T15:21:36.140Z,4.90
2019-04-23T15:31:33.603Z,5.13
2019-04-23T15:51:56.613Z,5.33
2019-04-23T15:56:55.269Z,5.10
2019-04-23T16:01:44.428Z,4.97
2019-04-23T16:06:49.388Z,5.27
2019-04-23T16:12:16.814Z,5.30
2019-04-23T16:17:27.681Z,5.13
2019-04-23T16:22:33.199Z,4.77
2019-04-23T16:27:34.912Z,5.00
2019-04-23T16:38:00.882Z,4.40
2019-04-23T16:43:03.736Z,4.70
2019-04-23T16:48:09.258Z,4.50
2019-04-23T16:58:22.899Z,4.57
2019-04-23T17:03:31.472Z,5.40
2019-04-23T17:18:41.822Z,5.23
2019-04-23T17:23:59.266Z,4.77
2019-04-23T17:28:44.897Z,5.87
2019-04-23T17:49:15.591Z,6.47
2019-04-23T17:54:26.932Z,6.33
2019-04-23T17:59:28.122Z,6.67
2019-04-23T18:04:43.934Z,5.63
2019-04-23T18:09:48.541Z,6.43
2019-04-23T18:14:45.082Z,6.33
2019-04-23T18:20:05.013Z,5.80
2019-04-23T18:30:32.341Z,6.33
2019-04-23T18:35:35.689Z,6.67
2019-04-23T19:06:29.806Z,6.13
2019-04-23T19:11:44.329Z,6.57
2019-04-23T19:22:07.081Z,5.40
2019-04-23T19:42:18.030Z,6.37
2019-04-23T19:47:20.694Z,6.53
2019-04-23T19:52:20.341Z,6.23
2019-04-23T19:57:42.703Z,6.00
2019-04-23T20:02:58.164Z,6.40
2019-04-23T20:12:40.836Z,5.57
2019-04-23T20:22:52.345Z,6.20
2019-04-23T20:38:33.731Z,6.40
2019-04-23T20:43:33.918Z,6.57
2019-04-23T20:48:41.248Z,6.03
2019-04-23T20:53:40.048Z,6.30
2019-04-23T20:58:47.916Z,6.40
2019-04-23T21:14:24.055Z,6.00
2019-04-23T21:19:02.537Z,5.50
2019-04-23T21:24:08.775Z,7.10
2019-04-23T21:29:14.410Z,5.87
2019-04-23T21:34:45.338Z,6.43
2019-04-23T21:39:34.353Z,6.00
2019-04-23T21:44:35.899Z,6.30
2019-04-23T21:59:55.668Z,6.20
2019-04-23T22:10:05.937Z,7.20
2019-04-23T22:15:07.171Z,6.47
2019-04-23T22:20:18.877Z,6.43
2019-04-23T22:25:13.445Z,6.83
2019-04-23T22:35:30.187Z,7.10
2019-04-23T22:40:34.541Z,6.57
2019-04-23T22:45:52.546Z,6.90
2019-04-23T22:51:03.141Z,6.63
2019-04-23T23:01:14.082Z,6.63
2019-04-23T23:06:21.071Z,6.50
2019-04-23T23:11:19.008Z,6.20
2019-04-23T23:16:21.346Z,7.10
2019-04-23T23:21:33.812Z,6.10
2019-04-23T23:31:50.448Z,6.90
2019-04-23T23:41:48.891Z,6.13
2019-04-23T23:47:03.102Z,5.20
2019-04-23T23:51:58.322Z,5.83
2019-04-23T23:57:13.882Z,5.53
